Time;durP1;ratioP1;P1;durP2;ratioP2;P2;SDS_P1;SDS_P2;PMS_P1;PMS_P2;Temp;Humidity;BMP_temperature;BMP_pressure;BME280_temperature;BME280_humidity;BME280_pressure;Samples;Min_cycle;Max_cycle;Signal;HPM_P1;HPM_P2
2021/09/04 00:01:03;;;;;;;29.48;13.60;;;;;;;15.71;73.84;102117.09;5055583;28;20032;-46
2021/09/04 00:03:28;;;;;;;26.00;13.85;;;;;;;15.68;73.69;102115.31;5066810;28;20067;-47
2021/09/04 00:05:54;;;;;;;28.73;13.95;;;;;;;15.64;73.98;102113.50;5068309;28;20040;-47
2021/09/04 00:08:19;;;;;;;29.73;13.70;;;;;;;15.57;74.09;102118.66;5064780;28;20024;-48
2021/09/04 00:10:44;;;;;;;28.92;14.40;;;;;;;15.46;74.39;102115.88;5066172;28;20447;-50
2021/09/04 00:13:10;;;;;;;27.20;13.40;;;;;;;15.61;73.83;102118.75;5067989;28;20134;-47
2021/09/04 00:15:36;;;;;;;29.42;13.32;;;;;;;15.56;73.98;102120.41;5065857;28;20392;-47
2021/09/04 00:18:01;;;;;;;29.90;13.93;;;;;;;15.59;73.63;102116.94;5073211;28;20219;-47
2021/09/04 00:20:27;;;;;;;26.55;13.45;;;;;;;15.57;73.69;102111.66;5046644;28;20488;-49
2021/09/04 00:22:52;;;;;;;29.02;13.90;;;;;;;15.52;73.70;102113.34;5071528;28;20316;-48
2021/09/04 00:25:18;;;;;;;28.00;14.02;;;;;;;15.43;73.80;102119.31;5069376;28;20111;-51
2021/09/04 00:27:43;;;;;;;26.70;13.85;;;;;;;15.38;74.04;102114.88;5066076;28;20422;-48
2021/09/04 00:30:10;;;;;;;28.95;14.05;;;;;;;15.28;74.15;102105.13;5074919;28;20101;-53
2021/09/04 00:32:36;;;;;;;26.95;13.95;;;;;;;15.47;73.48;102106.25;5068577;28;20031;-49
2021/09/04 00:35:01;;;;;;;26.73;13.60;;;;;;;15.32;74.25;102099.03;5069622;28;20028;-48
2021/09/04 00:37:26;;;;;;;31.42;13.38;;;;;;;15.37;73.82;102107.84;5072444;28;20103;-47
2021/09/04 00:39:52;;;;;;;26.55;13.40;;;;;;;15.33;73.90;102104.31;5068872;28;20040;-49
2021/09/04 00:42:21;;;;;;;33.00;13.48;;;;;;;15.31;74.10;102110.41;5072636;28;20161;-47
2021/09/04 00:44:47;;;;;;;26.50;13.73;;;;;;;15.28;73.99;102099.88;5070773;28;20089;-50
2021/09/04 00:47:12;;;;;;;27.27;12.93;;;;;;;15.30;74.01;102106.03;5070983;28;20024;-46
2021/09/04 00:49:38;;;;;;;30.27;13.70;;;;;;;15.27;73.87;102098.09;5057350;28;20404;-46
2021/09/04 00:52:05;;;;;;;27.90;13.95;;;;;;;15.22;74.30;102105.91;5066768;28;20123;-46
2021/09/04 00:54:30;;;;;;;29.60;13.85;;;;;;;15.12;74.62;102096.16;5053520;28;20430;-46
2021/09/04 00:56:56;;;;;;;26.05;13.43;;;;;;;15.11;74.54;102093.50;5066953;28;20544;-48
2021/09/04 00:59:22;;;;;;;28.17;13.30;;;;;;;15.20;73.99;102097.13;5049341;28;20031;-47
2021/09/04 01:01:47;;;;;;;27.23;13.35;;;;;;;15.17;74.18;102091.84;5066621;28;20107;-51
2021/09/04 01:04:13;;;;;;;30.83;13.00;;;;;;;14.99;74.82;102089.84;5069168;28;20170;-46
2021/09/04 01:06:38;;;;;;;25.00;12.77;;;;;;;15.10;74.46;102089.09;5072836;28;20593;-48
2021/09/04 01:09:04;;;;;;;32.35;12.95;;;;;;;15.14;74.21;102081.28;5054088;28;20118;-47
2021/09/04 01:11:29;;;;;;;29.63;13.93;;;;;;;15.14;74.23;102080.41;5064987;28;20036;-48
2021/09/04 01:13:55;;;;;;;27.65;13.38;;;;;;;15.10;74.14;102082.09;5071623;28;20093;-49
2021/09/04 01:16:21;;;;;;;29.20;13.48;;;;;;;14.99;74.70;102089.84;5070165;28;20281;-47
2021/09/04 01:18:46;;;;;;;26.48;13.00;;;;;;;14.98;74.71;102081.94;5071357;28;20035;-48
2021/09/04 01:21:12;;;;;;;27.02;12.80;;;;;;;14.97;74.51;102083.69;5049004;28;20019;-48
2021/09/04 01:23:39;;;;;;;26.42;12.73;;;;;;;14.83;74.99;102081.69;5055221;28;20027;-49
2021/09/04 01:26:06;;;;;;;29.35;13.23;;;;;;;14.93;74.68;102084.50;5067196;28;20036;-50
2021/09/04 01:28:31;;;;;;;29.40;13.20;;;;;;;14.91;74.73;102088.84;5068914;28;20404;-47
2021/09/04 01:30:57;;;;;;;26.17;12.88;;;;;;;14.94;74.85;102080.13;5070567;28;20031;-48
2021/09/04 01:33:22;;;;;;;30.83;13.70;;;;;;;14.90;74.85;102076.56;5064201;28;20083;-47
2021/09/04 01:35:48;;;;;;;27.60;13.15;;;;;;;14.85;75.06;102078.25;5071339;28;20486;-49
2021/09/04 01:38:13;;;;;;;30.30;13.45;;;;;;;14.88;74.99;102077.41;5067223;28;20036;-48
2021/09/04 01:40:38;;;;;;;29.02;12.52;;;;;;;14.85;75.04;102082.59;5067689;28;20048;-46
2021/09/04 01:43:04;;;;;;;29.50;13.00;;;;;;;14.82;75.02;102074.69;5071553;28;20020;-50
2021/09/04 01:45:29;;;;;;;26.50;12.95;;;;;;;14.84;74.83;102080.84;5071631;28;20039;-48
2021/09/04 01:47:55;;;;;;;30.77;13.50;;;;;;;14.83;74.89;102076.44;5071836;28;20447;-47
2021/09/04 01:50:21;;;;;;;28.27;13.23;;;;;;;14.80;74.88;102077.28;5069576;28;20439;-48
2021/09/04 01:52:46;;;;;;;29.80;13.48;;;;;;;14.71;75.42;102076.25;5068561;28;20093;-48
2021/09/04 01:55:17;;;;;;;31.08;13.52;;;;;;;14.64;75.61;102079.66;5050907;28;20059;-47
2021/09/04 01:57:42;;;;;;;31.15;13.30;;;;;;;14.69;75.40;102078.88;5067279;28;20229;-50
2021/09/04 02:00:09;;;;;;;30.58;12.52;;;;;;;14.75;75.07;102076.34;5066403;28;20359;-49
2021/09/04 02:02:35;;;;;;;33.10;13.07;;;;;;;14.76;75.10;102082.47;5070221;28;20024;-51
2021/09/04 02:05:00;;;;;;;31.50;12.88;;;;;;;14.69;75.29;102076.25;5067700;28;20585;-46
2021/09/04 02:07:27;;;;;;;26.00;12.65;;;;;;;14.70;75.34;102075.38;5067366;28;20422;-48
2021/09/04 02:09:53;;;;;;;32.40;13.35;;;;;;;14.70;75.23;102075.38;5066662;28;20028;-51
2021/09/04 02:12:18;;;;;;;26.60;12.52;;;;;;;14.71;74.97;102066.63;5070286;28;20039;-46
2021/09/04 02:14:44;;;;;;;27.23;12.85;;;;;;;14.67;75.34;102072.72;5071037;28;20452;-46
2021/09/04 02:17:09;;;;;;;27.98;12.40;;;;;;;14.65;75.32;102071.78;5067492;28;20028;-47
2021/09/04 02:19:35;;;;;;;29.58;12.45;;;;;;;14.67;75.13;102070.09;5065536;28;20024;-47
2021/09/04 02:22:00;;;;;;;29.75;12.68;;;;;;;14.63;75.25;102060.41;5067798;28;21145;-51
2021/09/04 02:24:26;;;;;;;32.45;13.23;;;;;;;14.61;75.33;102070.88;5064695;28;20506;-49
2021/09/04 02:26:51;;;;;;;30.95;13.00;;;;;;;14.61;75.40;102062.13;5054103;28;20115;-47
2021/09/04 02:29:16;;;;;;;30.80;13.27;;;;;;;14.52;75.76;102067.19;5069679;28;20126;-49
2021/09/04 02:31:42;;;;;;;28.80;12.90;;;;;;;14.57;75.67;102070.81;5065600;28;20556;-49
2021/09/04 02:34:09;;;;;;;28.15;12.68;;;;;;;14.55;75.77;102060.28;5069089;28;20036;-49
2021/09/04 02:36:35;;;;;;;27.45;12.75;;;;;;;14.58;75.81;102055.06;5066441;28;20032;-49
2021/09/04 02:39:00;;;;;;;33.30;13.02;;;;;;;14.57;75.69;102053.31;5068091;28;20376;-48
2021/09/04 02:41:25;;;;;;;29.90;12.93;;;;;;;14.64;75.40;102054.28;5051468;28;20063;-47
2021/09/04 02:43:51;;;;;;;34.10;12.73;;;;;;;14.60;75.71;102055.09;5066142;28;20027;-47
2021/09/04 02:46:16;;;;;;;25.92;12.65;;;;;;;14.63;75.30;102055.16;5066516;28;20553;-47
2021/09/04 02:48:41;;;;;;;28.90;12.35;;;;;;;14.56;75.60;102058.53;5053817;28;20028;-48
2021/09/04 02:51:07;;;;;;;28.52;12.88;;;;;;;14.52;75.79;102061.94;5070730;28;20144;-49
2021/09/04 02:53:32;;;;;;;39.25;13.73;;;;;;;14.50;75.99;102058.44;5064612;28;20276;-46
2021/09/04 02:55:58;;;;;;;31.00;13.25;;;;;;;14.49;75.99;102062.81;5070272;28;20474;-47
2021/09/04 02:58:24;;;;;;;33.92;13.35;;;;;;;14.48;76.08;102065.41;5070516;28;20346;-47
2021/09/04 03:00:49;;;;;;;30.25;13.23;;;;;;;14.47;75.93;102061.00;5067849;28;20676;-47
2021/09/04 03:03:14;;;;;;;34.67;13.98;;;;;;;14.32;76.53;102060.72;5069982;28;20038;-50
2021/09/04 03:05:40;;;;;;;30.10;13.23;;;;;;;14.44;76.26;102063.59;5062401;28;20480;-50
2021/09/04 03:08:05;;;;;;;33.22;13.93;;;;;;;14.38;76.48;102064.38;5070022;28;20854;-48
2021/09/04 03:10:31;;;;;;;31.25;13.80;;;;;;;14.45;76.22;102065.38;5070066;28;20024;-48
2021/09/04 03:12:57;;;;;;;34.65;13.98;;;;;;;14.40;76.35;102056.50;5067988;28;20028;-48
2021/09/04 03:15:22;;;;;;;31.67;14.27;;;;;;;14.47;75.95;102061.00;5056522;28;20032;-50
2021/09/04 03:17:47;;;;;;;32.83;14.07;;;;;;;14.44;75.76;102059.22;5064730;28;20042;-48
2021/09/04 03:20:13;;;;;;;31.90;13.65;;;;;;;14.43;75.73;102057.47;5071608;28;20107;-52
2021/09/04 03:22:38;;;;;;;33.97;14.93;;;;;;;14.34;76.43;102052.00;5052034;28;20058;-46
2021/09/04 03:25:05;;;;;;;35.45;15.02;;;;;;;14.36;76.39;102047.69;5065420;28;20024;-49
2021/09/04 03:27:30;;;;;;;36.97;14.18;;;;;;;14.39;76.38;102049.53;5068836;28;20581;-47
2021/09/04 03:29:56;;;;;;;35.63;14.57;;;;;;;14.31;76.71;102048.47;5062432;28;20031;-47
2021/09/04 03:32:22;;;;;;;31.15;13.73;;;;;;;14.36;76.43;102050.31;5050208;28;20115;-48
2021/09/04 03:34:47;;;;;;;36.83;14.88;;;;;;;14.28;76.54;102051.03;5068618;28;20036;-47
2021/09/04 03:37:13;;;;;;;36.10;14.82;;;;;;;14.27;76.83;102051.91;5066142;28;20771;-49
2021/09/04 03:39:38;;;;;;;33.33;14.18;;;;;;;14.28;76.90;102053.66;5052243;28;20035;-52
2021/09/04 03:42:04;;;;;;;34.15;14.68;;;;;;;14.45;76.77;102044.38;5067207;28;20028;-47
2021/09/04 03:44:29;;;;;;;33.35;14.80;;;;;;;14.49;76.62;102047.06;5065801;28;20093;-49
2021/09/04 03:46:55;;;;;;;34.40;15.30;;;;;;;14.54;76.66;102034.00;5068240;28;20038;-48
2021/09/04 03:49:20;;;;;;;37.25;15.52;;;;;;;14.67;76.21;102043.84;5072249;28;20176;-47
2021/09/04 03:51:45;;;;;;;40.80;14.77;;;;;;;14.70;76.21;102038.63;5065597;28;20537;-52
2021/09/04 03:54:11;;;;;;;32.15;14.82;;;;;;;14.65;76.05;102040.28;5049835;28;20052;-49
2021/09/04 03:56:36;;;;;;;37.05;14.48;;;;;;;14.89;75.49;102045.03;5069748;28;20032;-49
2021/09/04 03:59:01;;;;;;;36.30;15.00;;;;;;;14.92;75.44;102050.34;5069020;28;20112;-48
2021/09/04 04:01:27;;;;;;;32.38;14.00;;;;;;;14.99;75.37;102046.94;5072864;28;20028;-47
2021/09/04 04:03:52;;;;;;;33.22;15.13;;;;;;;15.01;75.30;102053.97;5051347;28;20126;-47
2021/09/04 04:06:18;;;;;;;36.75;15.20;;;;;;;14.94;75.92;102051.25;5071195;28;20055;-47
2021/09/04 04:08:43;;;;;;;36.45;15.50;;;;;;;15.06;75.41;102055.78;5072026;28;20035;-49
2021/09/04 04:11:12;;;;;;;39.28;15.57;;;;;;;15.08;75.36;102062.81;5066481;28;20194;-51
2021/09/04 04:13:38;;;;;;;34.65;15.25;;;;;;;15.07;75.36;102057.53;5071859;28;20063;-47
2021/09/04 04:16:05;;;;;;;34.45;15.20;;;;;;;15.12;75.10;102071.63;5072368;28;20111;-50
2021/09/04 04:18:33;;;;;;;34.38;15.60;;;;;;;15.10;75.33;102062.84;5070818;28;20894;-51
2021/09/04 04:20:59;;;;;;;36.83;15.43;;;;;;;15.16;75.31;102062.91;5074258;28;20119;-49
2021/09/04 04:23:24;;;;;;;36.13;15.93;;;;;;;15.24;75.14;102063.91;5070211;28;20036;-49
2021/09/04 04:25:50;;;;;;;33.17;15.63;;;;;;;15.27;74.83;102061.31;5073987;28;20032;-48
2021/09/04 04:28:16;;;;;;;40.78;16.08;;;;;;;15.36;74.82;102062.34;5066465;28;21496;-49
2021/09/04 04:30:41;;;;;;;38.42;16.77;;;;;;;15.19;75.22;102060.31;5073609;28;20028;-51
2021/09/04 04:33:07;;;;;;;40.85;17.25;;;;;;;15.18;75.47;102063.84;5069733;28;20036;-50
2021/09/04 04:35:32;;;;;;;36.95;16.45;;;;;;;15.03;75.62;102062.75;5067972;28;20041;-48
2021/09/04 04:37:57;;;;;;;36.38;16.83;;;;;;;15.07;75.82;102060.16;5072447;28;20031;-47
2021/09/04 04:40:23;;;;;;;34.38;15.95;;;;;;;15.17;75.52;102060.31;5069665;28;20417;-52
2021/09/04 04:42:48;;;;;;;39.03;16.38;;;;;;;15.08;75.70;102061.91;5065922;28;20074;-53
2021/09/04 04:45:14;;;;;;;30.80;15.32;;;;;;;15.19;75.21;102066.47;5054643;28;20354;-49
2021/09/04 04:47:39;;;;;;;36.72;16.00;;;;;;;15.07;75.45;102061.03;5043424;28;20089;-47
2021/09/04 04:50:05;;;;;;;34.33;15.63;;;;;;;15.20;75.05;102067.34;5071687;28;20656;-47
2021/09/04 04:52:31;;;;;;;34.55;15.40;;;;;;;14.98;75.76;102061.81;5067933;28;20063;-46
2021/09/04 04:54:56;;;;;;;33.58;15.35;;;;;;;15.01;75.72;102061.84;5074213;28;20028;-51
2021/09/04 04:57:22;;;;;;;34.78;14.80;;;;;;;15.10;75.67;102068.09;5069352;28;20365;-48
2021/09/04 04:59:47;;;;;;;34.08;15.55;;;;;;;14.93;76.26;102063.50;5070920;28;20036;-47
2021/09/04 05:02:12;;;;;;;36.38;16.40;;;;;;;14.99;75.96;102063.59;5069278;28;20024;-47
2021/09/04 05:04:38;;;;;;;31.67;15.40;;;;;;;15.25;75.25;102065.66;5070489;28;20089;-49
2021/09/04 05:07:03;;;;;;;31.52;15.38;;;;;;;15.20;75.31;102072.59;5037347;28;20690;-47
2021/09/04 05:09:29;;;;;;;34.40;15.63;;;;;;;15.32;75.26;102075.38;5064834;28;20137;-51
2021/09/04 05:11:54;;;;;;;34.30;15.55;;;;;;;15.20;75.56;102083.09;5071097;28;20028;-48
2021/09/04 05:14:19;;;;;;;38.63;16.27;;;;;;;15.21;75.64;102083.13;5065010;28;20433;-49
2021/09/04 05:16:45;;;;;;;37.45;16.40;;;;;;;15.33;75.32;102087.66;5064609;28;20557;-47
2021/09/04 05:19:11;;;;;;;36.08;16.65;;;;;;;15.43;74.99;102089.53;5067163;28;20571;-48
2021/09/04 05:21:36;;;;;;;38.72;16.27;;;;;;;15.20;75.83;102081.34;5067817;28;20032;-49
2021/09/04 05:24:01;;;;;;;34.92;15.82;;;;;;;15.32;75.22;102089.41;5068964;28;20035;-46
2021/09/04 05:26:27;;;;;;;42.22;16.77;;;;;;;15.37;75.03;102082.47;5066177;28;20020;-48
2021/09/04 05:28:52;;;;;;;39.38;17.23;;;;;;;15.30;75.36;102082.38;5070074;28;20075;-47
2021/09/04 05:31:17;;;;;;;41.60;17.00;;;;;;;15.23;75.19;102081.41;5067879;28;20623;-46
2021/09/04 05:33:43;;;;;;;44.67;17.40;;;;;;;15.39;75.16;102085.13;5048243;28;20027;-46
2021/09/04 05:36:08;;;;;;;47.10;16.75;;;;;;;15.39;75.24;102086.00;5069305;28;20054;-47
2021/09/04 05:38:35;;;;;;;45.45;18.55;;;;;;;15.34;75.18;102078.94;5068272;28;20089;-49
2021/09/04 05:41:01;;;;;;;47.47;17.35;;;;;;;15.57;74.63;102074.88;5066906;28;20043;-47
2021/09/04 05:43:26;;;;;;;41.25;17.40;;;;;;;15.67;74.19;102075.88;5068643;28;20048;-51
2021/09/04 05:45:52;;;;;;;43.78;17.10;;;;;;;15.46;74.56;102071.19;5053133;28;20160;-47
2021/09/04 05:48:17;;;;;;;39.97;16.65;;;;;;;15.58;74.32;102075.75;5048569;28;20522;-49
2021/09/04 05:50:42;;;;;;;42.03;16.73;;;;;;;15.53;74.62;102083.59;5064421;28;20052;-48
2021/09/04 05:53:08;;;;;;;37.00;17.00;;;;;;;15.26;75.18;102070.94;5065483;28;20046;-48
2021/09/04 05:55:33;;;;;;;42.08;17.00;;;;;;;15.44;74.73;102072.91;5067696;28;20325;-51
2021/09/04 05:57:58;;;;;;;37.40;16.42;;;;;;;15.63;74.14;102074.06;5064268;28;20028;-47
2021/09/04 06:00:24;;;;;;;39.20;16.88;;;;;;;15.73;73.78;102076.81;5066033;28;20024;-46
2021/09/04 06:02:49;;;;;;;45.22;17.38;;;;;;;15.84;73.36;102082.19;5063917;28;20032;-49
2021/09/04 06:05:15;;;;;;;36.47;16.15;;;;;;;15.85;73.41;102064.69;5067713;28;20036;-48
2021/09/04 06:07:40;;;;;;;36.80;16.27;;;;;;;15.96;73.25;102070.94;5066479;28;20036;-48
2021/09/04 06:10:06;;;;;;;37.45;16.42;;;;;;;15.83;73.50;102076.06;5069300;28;20036;-51
2021/09/04 06:12:31;;;;;;;34.00;16.33;;;;;;;15.87;73.16;102065.56;5065456;28;20032;-47
2021/09/04 06:14:57;;;;;;;29.52;15.13;;;;;;;15.86;72.96;102071.69;5067470;28;20071;-48
2021/09/04 06:17:22;;;;;;;31.25;15.48;;;;;;;15.91;72.52;102072.63;5071669;28;20468;-46
2021/09/04 06:19:47;;;;;;;30.70;15.18;;;;;;;15.75;72.84;102074.19;5061915;28;20028;-48
2021/09/04 06:22:13;;;;;;;27.88;14.80;;;;;;;15.86;72.26;102072.56;5069530;28;20379;-49
2021/09/04 06:24:38;;;;;;;30.00;14.75;;;;;;;15.92;71.89;102072.63;5065722;28;20039;-47
2021/09/04 06:27:03;;;;;;;26.67;14.18;;;;;;;16.04;71.54;102080.63;5063669;28;20437;-49
2021/09/04 06:29:29;;;;;;;27.73;14.13;;;;;;;16.18;71.07;102073.78;5068710;28;20714;-51
2021/09/04 06:31:54;;;;;;;27.48;14.38;;;;;;;16.15;70.92;102081.66;5059797;28;20036;-50
2021/09/04 06:34:20;;;;;;;31.00;14.63;;;;;;;16.17;70.50;102089.53;5065743;28;20020;-47
2021/09/04 06:36:45;;;;;;;26.60;14.50;;;;;;;16.27;70.91;102090.53;5066918;28;20028;-48
2021/09/04 06:39:11;;;;;;;27.75;14.70;;;;;;;16.29;70.87;102089.66;5063559;28;20089;-47
2021/09/04 06:41:36;;;;;;;29.00;13.95;;;;;;;16.21;70.60;102094.88;5065430;28;20393;-48
2021/09/04 06:44:02;;;;;;;27.92;14.18;;;;;;;16.23;70.88;102095.75;5061537;28;20020;-51
2021/09/04 06:46:31;;;;;;;26.52;14.55;;;;;;;16.12;70.68;102089.50;5067625;28;20020;-51
2021/09/04 06:48:57;;;;;;;28.10;13.73;;;;;;;16.01;70.83;102085.00;5064996;28;20032;-48
2021/09/04 06:51:22;;;;;;;26.27;13.93;;;;;;;16.19;70.98;102087.81;5064270;28;20165;-46
2021/09/04 06:53:48;;;;;;;26.98;14.05;;;;;;;16.29;70.17;102087.03;5068810;28;20036;-49
2021/09/04 06:56:15;;;;;;;26.95;14.13;;;;;;;16.35;70.28;102088.81;5062521;28;20618;-47
2021/09/04 06:58:40;;;;;;;26.65;14.20;;;;;;;16.41;69.75;102091.50;5068120;28;20036;-47
2021/09/04 07:01:05;;;;;;;24.85;14.30;;;;;;;16.33;70.21;102093.22;5063497;28;20052;-46
2021/09/04 07:03:32;;;;;;;23.63;13.45;;;;;;;16.38;69.53;102096.75;5050318;28;20020;-46
2021/09/04 07:05:57;;;;;;;28.17;13.90;;;;;;;16.28;69.25;102093.19;5067049;28;20016;-49
2021/09/04 07:08:23;;;;;;;26.45;14.10;;;;;;;16.27;69.46;102101.06;5063871;28;20035;-47
2021/09/04 07:10:48;;;;;;;28.10;13.02;;;;;;;16.48;68.63;102098.59;5064391;28;20626;-50
2021/09/04 07:13:14;;;;;;;23.98;13.55;;;;;;;16.50;68.37;102094.25;5065084;28;20043;-47
2021/09/04 07:15:40;;;;;;;24.42;14.27;;;;;;;16.21;68.16;102102.75;5064844;28;20078;-46
2021/09/04 07:18:05;;;;;;;27.33;14.02;;;;;;;16.52;68.39;102096.03;5066379;28;20105;-48
2021/09/04 07:20:31;;;;;;;26.00;13.73;;;;;;;16.38;68.52;102100.28;5046675;28;20028;-47
2021/09/04 07:22:56;;;;;;;27.08;13.32;;;;;;;16.45;68.42;102090.69;5066645;28;20036;-48
2021/09/04 07:25:21;;;;;;;25.20;13.25;;;;;;;16.81;68.09;102104.19;5065214;28;20562;-49
2021/09/04 07:27:47;;;;;;;26.60;13.48;;;;;;;16.78;67.52;102112.03;5050676;28;20028;-46
2021/09/04 07:30:13;;;;;;;24.15;13.52;;;;;;;16.34;68.47;102100.25;5057494;28;20029;-51
2021/09/04 07:32:39;;;;;;;24.25;13.75;;;;;;;16.65;67.90;102106.69;5065180;28;20117;-48
2021/09/04 07:35:05;;;;;;;25.73;14.13;;;;;;;16.69;67.83;102103.19;5063628;28;20024;-48
2021/09/04 07:37:30;;;;;;;26.35;13.90;;;;;;;16.49;67.98;102103.00;5041519;28;20040;-49
2021/09/04 07:39:55;;;;;;;25.10;14.38;;;;;;;16.70;67.28;102110.25;5068257;28;20032;-46
2021/09/04 07:42:21;;;;;;;24.40;13.95;;;;;;;16.59;67.73;102103.13;5059383;28;20028;-47
2021/09/04 07:44:47;;;;;;;27.95;14.40;;;;;;;16.88;67.13;102100.72;5061381;28;20031;-47
2021/09/04 07:47:12;;;;;;;25.60;13.70;;;;;;;16.88;67.02;102100.72;5068564;28;20070;-49
2021/09/04 07:49:37;;;;;;;25.73;13.48;;;;;;;17.09;66.34;102102.59;5063739;28;20139;-46
2021/09/04 07:52:03;;;;;;;26.55;13.68;;;;;;;17.39;66.40;102102.75;5064747;28;20024;-48
2021/09/04 07:54:28;;;;;;;21.40;13.68;;;;;;;17.17;65.71;102100.91;5062341;28;20151;-50
2021/09/04 07:56:54;;;;;;;25.40;13.38;;;;;;;17.16;66.45;102104.41;5066097;28;20031;-47
2021/09/04 07:59:19;;;;;;;24.67;13.57;;;;;;;17.13;66.19;102107.03;5061537;28;20043;-48
2021/09/04 08:01:45;;;;;;;23.73;13.10;;;;;;;17.40;65.95;102108.91;5048545;28;20032;-48
2021/09/04 08:04:13;;;;;;;24.63;13.50;;;;;;;17.36;65.98;102099.25;5067014;28;20062;-46
2021/09/04 08:06:38;;;;;;;24.65;13.45;;;;;;;17.42;65.19;102100.16;5068848;28;20028;-48
2021/09/04 08:09:04;;;;;;;19.83;11.93;;;;;;;17.73;64.50;102095.94;5067475;28;20081;-49
2021/09/04 08:11:29;;;;;;;18.75;11.63;;;;;;;17.99;63.50;102100.41;5064263;28;20035;-47
2021/09/04 08:13:55;;;;;;;20.10;11.90;;;;;;;17.95;62.38;102101.25;5057869;28;20015;-47
2021/09/04 08:16:20;;;;;;;19.85;11.52;;;;;;;18.03;61.95;102094.25;5060552;28;20525;-47
2021/09/04 08:18:46;;;;;;;18.17;11.32;;;;;;;18.37;61.68;102093.41;5063635;28;20031;-50
2021/09/04 08:21:11;;;;;;;17.42;10.77;;;;;;;18.69;60.23;102104.00;5066593;28;20047;-49
2021/09/04 08:23:36;;;;;;;22.42;11.82;;;;;;;18.60;59.66;102102.25;5063761;28;20480;-47
2021/09/04 08:26:02;;;;;;;17.17;11.32;;;;;;;18.49;60.06;102098.69;5063263;28;20386;-46
2021/09/04 08:28:27;;;;;;;20.92;12.13;;;;;;;18.44;60.68;102099.56;5068247;28;20031;-49
2021/09/04 08:30:52;;;;;;;18.38;11.48;;;;;;;18.43;60.33;102105.72;5063907;28;20077;-47
2021/09/04 08:33:18;;;;;;;21.35;11.95;;;;;;;17.89;62.24;102099.47;5063452;28;20024;-49
2021/09/04 08:35:44;;;;;;;21.13;11.95;;;;;;;17.96;61.15;102103.00;5066533;28;20115;-49
2021/09/04 08:38:10;;;;;;;19.25;11.80;;;;;;;18.36;61.07;102103.97;5062600;28;20116;-47
2021/09/04 08:40:40;;;;;;;20.42;12.23;;;;;;;18.34;62.17;102098.69;5069779;28;20028;-46
2021/09/04 08:43:06;;;;;;;19.63;11.45;;;;;;;18.94;60.67;102100.47;5068682;28;20425;-47
2021/09/04 08:45:31;;;;;;;17.10;10.80;;;;;;;19.16;58.08;102101.28;5069793;28;20530;-47
2021/09/04 08:47:59;;;;;;;18.33;11.05;;;;;;;18.88;59.60;102096.94;5047994;28;20487;-47
2021/09/04 08:50:24;;;;;;;16.27;10.25;;;;;;;18.82;58.28;102104.88;5046452;28;20031;-47
2021/09/04 08:52:51;;;;;;;19.48;10.60;;;;;;;19.18;58.14;102103.94;5056496;28;20040;-49
2021/09/04 08:55:17;;;;;;;16.80;9.90;;;;;;;19.64;56.16;102110.84;5066521;28;20887;-47
2021/09/04 08:57:42;;;;;;;17.70;10.85;;;;;;;19.40;58.07;102103.84;5066815;28;20031;-51
2021/09/04 09:00:08;;;;;;;19.15;10.10;;;;;;;19.81;56.54;102106.38;5068541;28;20020;-50
2021/09/04 09:02:33;;;;;;;18.52;10.73;;;;;;;19.77;55.83;102106.38;5067666;28;20192;-47
2021/09/04 09:05:02;;;;;;;18.98;10.57;;;;;;;20.21;55.20;102109.66;5071163;28;20401;-47
2021/09/04 09:07:45;;;;;;;16.98;9.60;;;;;;;20.07;55.91;102107.97;5064348;28;20031;-52
2021/09/04 09:10:19;;;;;;;15.15;9.77;;;;;;;20.16;56.30;102107.94;5068027;28;20036;-47
2021/09/04 09:12:44;;;;;;;17.42;9.85;;;;;;;20.39;56.63;102107.78;5066111;28;20527;-48
2021/09/04 09:15:19;;;;;;;15.98;9.95;;;;;;;20.62;54.71;102108.47;5069241;28;20070;-49
2021/09/04 09:17:56;;;;;;;14.95;9.15;;;;;;;20.53;55.84;102105.94;5072435;28;20103;-50
2021/09/04 09:20:23;;;;;;;15.05;9.05;;;;;;;20.73;56.11;102096.03;5068026;28;20103;-46
2021/09/04 09:22:48;;;;;;;19.42;9.43;;;;;;;20.55;53.55;102102.34;5067741;28;20043;-46
2021/09/04 09:25:18;;;;;;;14.93;9.30;;;;;;;20.30;55.15;102095.50;5051072;28;20048;-47
2021/09/04 09:28:09;;;;;;;15.23;8.90;;;;;;;20.23;55.30;102089.34;5065730;28;20035;-47
2021/09/04 09:30:46;;;;;;;16.70;8.82;;;;;;;20.33;54.83;102094.59;5053518;28;20407;-47
2021/09/04 09:33:14;;;;;;;14.73;9.00;;;;;;;20.44;54.67;102088.31;5066857;28;20039;-45
2021/09/04 09:35:44;;;;;;;13.50;8.63;;;;;;;20.34;54.77;102099.00;5067969;28;20032;-46
2021/09/04 09:38:12;;;;;;;17.05;9.20;;;;;;;20.32;54.38;102098.09;5068876;28;20040;-47
2021/09/04 09:40:38;;;;;;;14.32;8.88;;;;;;;20.35;56.63;102093.72;5065808;28;20123;-46
2021/09/04 09:43:24;;;;;;;15.35;8.93;;;;;;;20.33;55.91;102087.53;5056281;28;20298;-46
2021/09/04 09:45:57;;;;;;;12.68;8.02;;;;;;;20.59;55.93;102089.97;5072417;28;20032;-49
2021/09/04 09:48:30;;;;;;;13.27;8.82;;;;;;;20.45;56.17;102084.78;5052715;28;21419;-46
2021/09/04 09:50:58;;;;;;;15.02;9.35;;;;;;;20.10;56.07;102082.38;5050595;28;20020;-48
2021/09/04 09:53:24;;;;;;;17.63;9.77;;;;;;;20.31;55.80;102094.56;5060720;28;20048;-47
2021/09/04 09:55:51;;;;;;;16.55;9.85;;;;;;;20.00;55.22;102093.94;5066278;28;20064;-47
2021/09/04 09:58:17;;;;;;;15.27;9.05;;;;;;;20.17;56.66;102089.41;5066787;28;20047;-51
2021/09/04 10:00:43;;;;;;;14.15;8.75;;;;;;;20.41;57.08;102092.78;5048382;28;20080;-47
2021/09/04 10:03:10;;;;;;;14.70;9.65;;;;;;;20.08;55.03;102093.84;5065728;28;20055;-48
2021/09/04 10:05:36;;;;;;;19.35;9.48;;;;;;;20.04;55.66;102089.47;5049127;28;20127;-51
2021/09/04 10:08:02;;;;;;;16.55;9.75;;;;;;;19.99;57.34;102086.88;5068608;28;20051;-46
2021/09/04 10:10:30;;;;;;;14.10;9.00;;;;;;;20.25;57.13;102089.31;5056337;28;20031;-51
2021/09/04 10:12:56;;;;;;;16.92;9.73;;;;;;;20.15;55.81;102084.97;5068149;28;20462;-48
2021/09/04 10:15:29;;;;;;;17.55;10.02;;;;;;;20.11;56.39;102086.78;5066190;28;20368;-53
2021/09/04 10:17:58;;;;;;;16.85;9.45;;;;;;;20.37;55.99;102083.13;5054137;28;20450;-50
2021/09/04 10:20:24;;;;;;;18.05;9.23;;;;;;;20.42;57.29;102089.25;5045447;28;20024;-47
2021/09/04 10:22:50;;;;;;;17.55;10.07;;;;;;;20.32;56.17;102096.38;5064924;28;20790;-48
2021/09/04 10:25:18;;;;;;;16.55;9.23;;;;;;;20.44;55.93;102077.72;5051989;28;20358;-47
2021/09/04 10:27:46;;;;;;;16.13;9.38;;;;;;;20.52;54.00;102078.56;5065921;28;20063;-49
2021/09/04 10:30:30;;;;;;;15.45;9.50;;;;;;;20.05;54.91;102078.88;5066630;28;20466;-50
2021/09/04 10:33:06;;;;;;;16.52;9.80;;;;;;;19.91;55.61;102083.38;5069365;28;21331;-51
2021/09/04 10:35:55;;;;;;;18.52;9.63;;;;;;;20.01;55.73;102076.25;5067972;28;20139;-50
2021/09/04 10:38:21;;;;;;;14.40;9.70;;;;;;;20.22;55.09;102074.34;5048902;28;20070;-48
2021/09/04 10:40:51;;;;;;;15.23;9.67;;;;;;;20.58;56.11;102073.19;5068415;28;20139;-47
2021/09/04 10:43:18;;;;;;;16.15;9.85;;;;;;;20.70;55.21;102066.91;5069622;28;20371;-46
2021/09/04 10:45:45;;;;;;;17.92;10.60;;;;;;;20.74;56.11;102067.78;5068758;28;20020;-48
2021/09/04 10:48:37;;;;;;;18.38;10.55;;;;;;;20.53;55.34;102048.53;5050977;28;20336;-49
2021/09/04 10:51:02;;;;;;;16.40;10.05;;;;;;;20.73;54.99;102068.66;5039798;28;20492;-50
2021/09/04 10:53:46;;;;;;;14.98;10.35;;;;;;;20.70;55.88;102058.06;5065720;28;20052;-53
2021/09/04 10:56:25;;;;;;;18.35;10.73;;;;;;;20.50;54.74;102058.25;5069875;28;20322;-47
2021/09/04 10:58:52;;;;;;;18.35;10.07;;;;;;;20.37;55.20;102051.31;5049001;28;20032;-47
2021/09/04 11:01:48;;;;;;;17.88;10.57;;;;;;;20.36;55.48;102052.22;5047508;28;21095;-48
2021/09/04 11:04:13;;;;;;;19.33;10.70;;;;;;;20.33;55.33;102055.75;5055025;28;20052;-47
2021/09/04 11:06:42;;;;;;;15.25;9.80;;;;;;;20.68;57.24;102052.78;5066304;28;20038;-49